sensor_id;sensor_type;location;lat;lon;timestamp;P1;durP1;ratioP1;P2;durP2;ratioP2
9821;SDS011;4950;46.042;14.472;2023-04-03T00:02:00;1.92;;;1.35;;
9821;SDS011;4950;46.042;14.472;2023-04-03T00:04:27;2.55;;;1.48;;
9821;SDS011;4950;46.042;14.472;2023-04-03T00:06:55;3.70;;;1.60;;
9821;SDS011;4950;46.042;14.472;2023-04-03T00:09:23;1.50;;;1.30;;
9821;SDS011;4950;46.042;14.472;2023-04-03T00:11:50;2.85;;;1.52;;
9821;SDS011;4950;46.042;14.472;2023-04-03T00:14:16;2.03;;;1.20;;
9821;SDS011;4950;46.042;14.472;2023-04-03T00:16:43;1.70;;;1.60;;
9821;SDS011;4950;46.042;14.472;2023-04-03T00:19:10;1.85;;;1.48;;
9821;SDS011;4950;46.042;14.472;2023-04-03T00:21:38;2.00;;;1.55;;
9821;SDS011;4950;46.042;14.472;2023-04-03T00:24:05;2.72;;;1.50;;
9821;SDS011;4950;46.042;14.472;2023-04-03T00:26:34;2.25;;;1.58;;
9821;SDS011;4950;46.042;14.472;2023-04-03T00:29:01;5.55;;;1.70;;
9821;SDS011;4950;46.042;14.472;2023-04-03T00:31:28;3.50;;;1.48;;
9821;SDS011;4950;46.042;14.472;2023-04-03T00:33:55;2.15;;;1.50;;
9821;SDS011;4950;46.042;14.472;2023-04-03T00:36:21;2.72;;;1.80;;
9821;SDS011;4950;46.042;14.472;2023-04-03T00:38:48;2.55;;;1.83;;
9821;SDS011;4950;46.042;14.472;2023-04-03T00:41:15;2.55;;;1.70;;
9821;SDS011;4950;46.042;14.472;2023-04-03T00:43:43;3.60;;;2.00;;
9821;SDS011;4950;46.042;14.472;2023-04-03T00:46:09;2.60;;;2.00;;
9821;SDS011;4950;46.042;14.472;2023-04-03T00:48:37;2.95;;;1.83;;
9821;SDS011;4950;46.042;14.472;2023-04-03T00:51:07;5.03;;;2.28;;
9821;SDS011;4950;46.042;14.472;2023-04-03T00:53:38;4.97;;;2.08;;
9821;SDS011;4950;46.042;14.472;2023-04-03T00:56:10;3.03;;;1.88;;
9821;SDS011;4950;46.042;14.472;2023-04-03T00:58:41;3.78;;;2.63;;
9821;SDS011;4950;46.042;14.472;2023-04-03T01:01:14;3.47;;;2.33;;
9821;SDS011;4950;46.042;14.472;2023-04-03T01:03:45;4.15;;;2.58;;
9821;SDS011;4950;46.042;14.472;2023-04-03T01:06:11;4.63;;;2.75;;
9821;SDS011;4950;46.042;14.472;2023-04-03T01:11:07;4.97;;;2.83;;
9821;SDS011;4950;46.042;14.472;2023-04-03T01:13:34;3.95;;;2.50;;
9821;SDS011;4950;46.042;14.472;2023-04-03T01:16:03;4.40;;;2.70;;
9821;SDS011;4950;46.042;14.472;2023-04-03T01:18:30;3.97;;;2.78;;
9821;SDS011;4950;46.042;14.472;2023-04-03T01:24:16;3.58;;;2.83;;
9821;SDS011;4950;46.042;14.472;2023-04-03T01:26:48;3.65;;;2.75;;
9821;SDS011;4950;46.042;14.472;2023-04-03T01:29:15;4.25;;;3.15;;
9821;SDS011;4950;46.042;14.472;2023-04-03T01:31:51;3.08;;;2.22;;
9821;SDS011;4950;46.042;14.472;2023-04-03T01:34:19;3.55;;;2.50;;
9821;SDS011;4950;46.042;14.472;2023-04-03T01:36:46;5.35;;;2.92;;
9821;SDS011;4950;46.042;14.472;2023-04-03T01:39:13;5.43;;;3.00;;
9821;SDS011;4950;46.042;14.472;2023-04-03T01:41:40;5.00;;;2.60;;
9821;SDS011;4950;46.042;14.472;2023-04-03T01:44:07;4.03;;;2.63;;
9821;SDS011;4950;46.042;14.472;2023-04-03T01:46:34;5.72;;;2.70;;
9821;SDS011;4950;46.042;14.472;2023-04-03T01:49:02;4.57;;;2.70;;
9821;SDS011;4950;46.042;14.472;2023-04-03T01:51:29;4.63;;;2.90;;
9821;SDS011;4950;46.042;14.472;2023-04-03T01:53:56;5.70;;;2.65;;
9821;SDS011;4950;46.042;14.472;2023-04-03T01:56:22;4.03;;;2.60;;
9821;SDS011;4950;46.042;14.472;2023-04-03T01:58:50;4.25;;;2.50;;
9821;SDS011;4950;46.042;14.472;2023-04-03T02:01:17;4.60;;;2.80;;
9821;SDS011;4950;46.042;14.472;2023-04-03T02:03:43;4.15;;;2.70;;
9821;SDS011;4950;46.042;14.472;2023-04-03T02:06:11;10.68;;;2.72;;
9821;SDS011;4950;46.042;14.472;2023-04-03T02:08:38;4.22;;;2.40;;
9821;SDS011;4950;46.042;14.472;2023-04-03T02:11:06;8.50;;;2.60;;
9821;SDS011;4950;46.042;14.472;2023-04-03T02:13:33;5.20;;;2.58;;
9821;SDS011;4950;46.042;14.472;2023-04-03T02:16:05;2.80;;;2.00;;
9821;SDS011;4950;46.042;14.472;2023-04-03T02:18:32;3.53;;;2.45;;
9821;SDS011;4950;46.042;14.472;2023-04-03T02:20:59;5.88;;;3.40;;
9821;SDS011;4950;46.042;14.472;2023-04-03T02:23:27;8.30;;;3.47;;
9821;SDS011;4950;46.042;14.472;2023-04-03T02:26:01;6.53;;;3.70;;
9821;SDS011;4950;46.042;14.472;2023-04-03T02:28:29;4.85;;;3.28;;
9821;SDS011;4950;46.042;14.472;2023-04-03T02:30:56;6.25;;;3.30;;
9821;SDS011;4950;46.042;14.472;2023-04-03T02:33:23;6.30;;;3.28;;
9821;SDS011;4950;46.042;14.472;2023-04-03T02:35:51;6.75;;;3.45;;
9821;SDS011;4950;46.042;14.472;2023-04-03T02:38:19;6.85;;;3.30;;
9821;SDS011;4950;46.042;14.472;2023-04-03T02:40:47;6.00;;;3.25;;
9821;SDS011;4950;46.042;14.472;2023-04-03T02:43:13;4.30;;;2.90;;
9821;SDS011;4950;46.042;14.472;2023-04-03T02:45:40;4.95;;;2.70;;
9821;SDS011;4950;46.042;14.472;2023-04-03T02:48:07;5.05;;;3.00;;
9821;SDS011;4950;46.042;14.472;2023-04-03T02:50:34;4.35;;;2.92;;
9821;SDS011;4950;46.042;14.472;2023-04-03T02:53:00;4.63;;;2.72;;
9821;SDS011;4950;46.042;14.472;2023-04-03T02:55:27;5.50;;;2.92;;
9821;SDS011;4950;46.042;14.472;2023-04-03T02:57:55;6.10;;;2.95;;
9821;SDS011;4950;46.042;14.472;2023-04-03T03:00:22;4.38;;;2.58;;
9821;SDS011;4950;46.042;14.472;2023-04-03T03:02:49;5.03;;;2.88;;
9821;SDS011;4950;46.042;14.472;2023-04-03T03:05:15;6.97;;;2.60;;
9821;SDS011;4950;46.042;14.472;2023-04-03T03:07:42;5.05;;;3.05;;
9821;SDS011;4950;46.042;14.472;2023-04-03T03:10:09;3.28;;;2.30;;
9821;SDS011;4950;46.042;14.472;2023-04-03T03:12:36;4.97;;;2.80;;
9821;SDS011;4950;46.042;14.472;2023-04-03T03:15:04;5.85;;;2.88;;
9821;SDS011;4950;46.042;14.472;2023-04-03T03:17:32;3.95;;;2.40;;
9821;SDS011;4950;46.042;14.472;2023-04-03T03:19:59;3.42;;;2.28;;
9821;SDS011;4950;46.042;14.472;2023-04-03T03:22:25;4.03;;;2.22;;
9821;SDS011;4950;46.042;14.472;2023-04-03T03:24:52;5.18;;;2.67;;
9821;SDS011;4950;46.042;14.472;2023-04-03T03:27:19;3.15;;;2.28;;
9821;SDS011;4950;46.042;14.472;2023-04-03T03:29:46;10.63;;;3.35;;
9821;SDS011;4950;46.042;14.472;2023-04-03T03:32:14;4.47;;;2.65;;
9821;SDS011;4950;46.042;14.472;2023-04-03T03:34:41;4.85;;;2.67;;
9821;SDS011;4950;46.042;14.472;2023-04-03T03:37:08;5.45;;;3.00;;
9821;SDS011;4950;46.042;14.472;2023-04-03T03:39:35;4.35;;;2.85;;
9821;SDS011;4950;46.042;14.472;2023-04-03T03:42:01;5.50;;;2.60;;
9821;SDS011;4950;46.042;14.472;2023-04-03T03:44:28;11.77;;;2.97;;
9821;SDS011;4950;46.042;14.472;2023-04-03T03:46:55;6.15;;;2.65;;
9821;SDS011;4950;46.042;14.472;2023-04-03T03:49:23;6.00;;;2.78;;
9821;SDS011;4950;46.042;14.472;2023-04-03T03:51:50;5.43;;;2.83;;
9821;SDS011;4950;46.042;14.472;2023-04-03T03:54:17;5.80;;;3.05;;
9821;SDS011;4950;46.042;14.472;2023-04-03T03:56:44;4.60;;;2.75;;
9821;SDS011;4950;46.042;14.472;2023-04-03T03:59:11;3.97;;;2.70;;
9821;SDS011;4950;46.042;14.472;2023-04-03T04:01:38;6.68;;;3.00;;
9821;SDS011;4950;46.042;14.472;2023-04-03T04:04:05;3.47;;;2.50;;
9821;SDS011;4950;46.042;14.472;2023-04-03T04:06:33;11.68;;;2.70;;
9821;SDS011;4950;46.042;14.472;2023-04-03T04:08:59;7.28;;;2.85;;
9821;SDS011;4950;46.042;14.472;2023-04-03T04:11:26;5.15;;;2.65;;
9821;SDS011;4950;46.042;14.472;2023-04-03T04:13:53;6.57;;;3.10;;
9821;SDS011;4950;46.042;14.472;2023-04-03T04:16:20;5.28;;;2.97;;
9821;SDS011;4950;46.042;14.472;2023-04-03T04:18:46;5.75;;;2.88;;
9821;SDS011;4950;46.042;14.472;2023-04-03T04:21:13;4.80;;;2.90;;
9821;SDS011;4950;46.042;14.472;2023-04-03T04:23:41;6.38;;;3.03;;
9821;SDS011;4950;46.042;14.472;2023-04-03T04:26:08;5.82;;;3.22;;
9821;SDS011;4950;46.042;14.472;2023-04-03T04:28:35;10.27;;;3.15;;
9821;SDS011;4950;46.042;14.472;2023-04-03T04:31:01;6.10;;;3.38;;
9821;SDS011;4950;46.042;14.472;2023-04-03T04:33:29;5.57;;;3.22;;
9821;SDS011;4950;46.042;14.472;2023-04-03T04:35:55;4.97;;;2.97;;
9821;SDS011;4950;46.042;14.472;2023-04-03T04:38:22;7.05;;;2.90;;
9821;SDS011;4950;46.042;14.472;2023-04-03T04:40:50;9.30;;;3.60;;
9821;SDS011;4950;46.042;14.472;2023-04-03T04:43:17;9.73;;;3.40;;
9821;SDS011;4950;46.042;14.472;2023-04-03T04:45:43;6.10;;;3.20;;
9821;SDS011;4950;46.042;14.472;2023-04-03T04:48:10;6.03;;;3.25;;
9821;SDS011;4950;46.042;14.472;2023-04-03T04:50:37;4.82;;;3.17;;
9821;SDS011;4950;46.042;14.472;2023-04-03T04:53:04;5.72;;;3.70;;
9821;SDS011;4950;46.042;14.472;2023-04-03T04:55:30;5.55;;;3.28;;
9821;SDS011;4950;46.042;14.472;2023-04-03T04:57:59;8.32;;;3.30;;
9821;SDS011;4950;46.042;14.472;2023-04-03T05:00:26;5.70;;;3.15;;
9821;SDS011;4950;46.042;14.472;2023-04-03T05:02:52;6.88;;;3.40;;
9821;SDS011;4950;46.042;14.472;2023-04-03T05:05:19;8.05;;;3.97;;
9821;SDS011;4950;46.042;14.472;2023-04-03T05:07:46;8.98;;;4.18;;
9821;SDS011;4950;46.042;14.472;2023-04-03T05:10:12;5.78;;;3.67;;
9821;SDS011;4950;46.042;14.472;2023-04-03T05:12:39;6.70;;;3.60;;
9821;SDS011;4950;46.042;14.472;2023-04-03T05:15:08;6.73;;;3.67;;
9821;SDS011;4950;46.042;14.472;2023-04-03T05:17:35;6.47;;;3.58;;
9821;SDS011;4950;46.042;14.472;2023-04-03T05:20:02;4.40;;;2.80;;
9821;SDS011;4950;46.042;14.472;2023-04-03T05:22:29;7.20;;;3.67;;
9821;SDS011;4950;46.042;14.472;2023-04-03T05:24:56;6.22;;;3.28;;
9821;SDS011;4950;46.042;14.472;2023-04-03T05:27:23;8.38;;;3.50;;
9821;SDS011;4950;46.042;14.472;2023-04-03T05:29:50;7.75;;;3.65;;
9821;SDS011;4950;46.042;14.472;2023-04-03T05:32:20;6.75;;;3.65;;
9821;SDS011;4950;46.042;14.472;2023-04-03T05:34:46;6.35;;;3.25;;
9821;SDS011;4950;46.042;14.472;2023-04-03T05:37:13;6.70;;;3.30;;
9821;SDS011;4950;46.042;14.472;2023-04-03T05:39:40;5.03;;;3.05;;
9821;SDS011;4950;46.042;14.472;2023-04-03T05:42:06;7.60;;;3.20;;
9821;SDS011;4950;46.042;14.472;2023-04-03T05:44:34;7.25;;;3.42;;
9821;SDS011;4950;46.042;14.472;2023-04-03T05:47:01;7.07;;;3.55;;
9821;SDS011;4950;46.042;14.472;2023-04-03T05:49:30;7.70;;;3.25;;
9821;SDS011;4950;46.042;14.472;2023-04-03T05:51:56;8.02;;;3.50;;
9821;SDS011;4950;46.042;14.472;2023-04-03T05:54:24;6.65;;;3.05;;
9821;SDS011;4950;46.042;14.472;2023-04-03T05:56:52;7.00;;;3.38;;
9821;SDS011;4950;46.042;14.472;2023-04-03T05:59:20;4.95;;;2.83;;
9821;SDS011;4950;46.042;14.472;2023-04-03T06:01:46;7.63;;;2.83;;
9821;SDS011;4950;46.042;14.472;2023-04-03T06:04:14;8.00;;;3.60;;
9821;SDS011;4950;46.042;14.472;2023-04-03T06:06:46;5.90;;;3.17;;
9821;SDS011;4950;46.042;14.472;2023-04-03T06:09:14;7.97;;;3.42;;
9821;SDS011;4950;46.042;14.472;2023-04-03T06:11:42;9.90;;;2.65;;
9821;SDS011;4950;46.042;14.472;2023-04-03T06:14:09;7.15;;;3.17;;
9821;SDS011;4950;46.042;14.472;2023-04-03T06:16:36;6.55;;;3.22;;
9821;SDS011;4950;46.042;14.472;2023-04-03T06:19:03;5.70;;;3.13;;
9821;SDS011;4950;46.042;14.472;2023-04-03T06:21:31;6.63;;;3.15;;
9821;SDS011;4950;46.042;14.472;2023-04-03T06:23:59;6.00;;;2.58;;
9821;SDS011;4950;46.042;14.472;2023-04-03T06:26:27;4.78;;;2.80;;
9821;SDS011;4950;46.042;14.472;2023-04-03T06:28:53;8.60;;;2.53;;
9821;SDS011;4950;46.042;14.472;2023-04-03T06:31:20;5.40;;;2.78;;
9821;SDS011;4950;46.042;14.472;2023-04-03T06:33:47;5.03;;;2.70;;
9821;SDS011;4950;46.042;14.472;2023-04-03T06:36:14;6.40;;;2.70;;
9821;SDS011;4950;46.042;14.472;2023-04-03T06:38:45;4.95;;;2.40;;
9821;SDS011;4950;46.042;14.472;2023-04-03T06:41:13;8.57;;;2.75;;
9821;SDS011;4950;46.042;14.472;2023-04-03T06:43:41;4.03;;;2.40;;
9821;SDS011;4950;46.042;14.472;2023-04-03T06:46:10;5.10;;;2.80;;
9821;SDS011;4950;46.042;14.472;2023-04-03T06:48:40;5.15;;;2.30;;
9821;SDS011;4950;46.042;14.472;2023-04-03T06:51:09;4.10;;;2.33;;
9821;SDS011;4950;46.042;14.472;2023-04-03T06:53:41;5.20;;;2.50;;
9821;SDS011;4950;46.042;14.472;2023-04-03T06:56:08;5.68;;;2.45;;
9821;SDS011;4950;46.042;14.472;2023-04-03T06:58:36;4.20;;;2.15;;
9821;SDS011;4950;46.042;14.472;2023-04-03T07:01:02;4.30;;;2.47;;
9821;SDS011;4950;46.042;14.472;2023-04-03T07:03:29;7.25;;;2.55;;
9821;SDS011;4950;46.042;14.472;2023-04-03T07:05:56;4.40;;;2.70;;
9821;SDS011;4950;46.042;14.472;2023-04-03T07:08:23;4.72;;;2.28;;
9821;SDS011;4950;46.042;14.472;2023-04-03T07:10:51;4.18;;;2.33;;
9821;SDS011;4950;46.042;14.472;2023-04-03T07:13:17;6.30;;;2.30;;
9821;SDS011;4950;46.042;14.472;2023-04-03T07:15:46;4.65;;;2.60;;
9821;SDS011;4950;46.042;14.472;2023-04-03T07:18:13;5.00;;;2.58;;
9821;SDS011;4950;46.042;14.472;2023-04-03T07:20:39;4.25;;;2.20;;
9821;SDS011;4950;46.042;14.472;2023-04-03T07:23:06;5.78;;;2.20;;
9821;SDS011;4950;46.042;14.472;2023-04-03T07:25:33;7.82;;;2.58;;
9821;SDS011;4950;46.042;14.472;2023-04-03T07:27:59;4.35;;;2.20;;
9821;SDS011;4950;46.042;14.472;2023-04-03T07:30:26;4.57;;;2.17;;
9821;SDS011;4950;46.042;14.472;2023-04-03T07:32:55;3.88;;;2.13;;
9821;SDS011;4950;46.042;14.472;2023-04-03T07:35:21;6.78;;;2.83;;
9821;SDS011;4950;46.042;14.472;2023-04-03T07:37:48;8.73;;;2.42;;
9821;SDS011;4950;46.042;14.472;2023-04-03T07:40:15;3.30;;;1.67;;
9821;SDS011;4950;46.042;14.472;2023-04-03T07:42:42;5.97;;;1.70;;
9821;SDS011;4950;46.042;14.472;2023-04-03T07:45:09;4.05;;;1.90;;
9821;SDS011;4950;46.042;14.472;2023-04-03T07:47:36;3.20;;;1.58;;
9821;SDS011;4950;46.042;14.472;2023-04-03T07:50:05;4.18;;;1.90;;
9821;SDS011;4950;46.042;14.472;2023-04-03T07:52:32;5.68;;;2.50;;
9821;SDS011;4950;46.042;14.472;2023-04-03T07:54:59;5.40;;;2.53;;
9821;SDS011;4950;46.042;14.472;2023-04-03T07:57:26;3.92;;;1.75;;
9821;SDS011;4950;46.042;14.472;2023-04-03T07:59:52;2.47;;;1.50;;
9821;SDS011;4950;46.042;14.472;2023-04-03T08:02:19;3.28;;;1.80;;
9821;SDS011;4950;46.042;14.472;2023-04-03T08:04:46;3.35;;;1.80;;
9821;SDS011;4950;46.042;14.472;2023-04-03T08:07:14;4.65;;;1.60;;
9821;SDS011;4950;46.042;14.472;2023-04-03T08:09:40;2.72;;;1.40;;
9821;SDS011;4950;46.042;14.472;2023-04-03T08:12:07;4.10;;;1.60;;
9821;SDS011;4950;46.042;14.472;2023-04-03T08:14:36;2.30;;;1.60;;
9821;SDS011;4950;46.042;14.472;2023-04-03T08:17:03;1.98;;;1.60;;
9821;SDS011;4950;46.042;14.472;2023-04-03T08:19:30;2.47;;;1.35;;
9821;SDS011;4950;46.042;14.472;2023-04-03T08:21:57;5.03;;;1.80;;
9821;SDS011;4950;46.042;14.472;2023-04-03T08:24:27;5.93;;;1.50;;
9821;SDS011;4950;46.042;14.472;2023-04-03T08:26:53;1.98;;;1.33;;
9821;SDS011;4950;46.042;14.472;2023-04-03T08:29:20;3.28;;;1.55;;
9821;SDS011;4950;46.042;14.472;2023-04-03T08:31:47;1.95;;;1.40;;
9821;SDS011;4950;46.042;14.472;2023-04-03T08:34:14;4.57;;;1.65;;
9821;SDS011;4950;46.042;14.472;2023-04-03T08:36:42;3.00;;;1.58;;
9821;SDS011;4950;46.042;14.472;2023-04-03T08:39:09;2.65;;;1.63;;
9821;SDS011;4950;46.042;14.472;2023-04-03T08:41:37;2.13;;;1.20;;
9821;SDS011;4950;46.042;14.472;2023-04-03T08:44:13;3.40;;;1.48;;
9821;SDS011;4950;46.042;14.472;2023-04-03T08:46:48;2.78;;;1.60;;
9821;SDS011;4950;46.042;14.472;2023-04-03T08:49:24;5.57;;;1.90;;
9821;SDS011;4950;46.042;14.472;2023-04-03T08:51:53;1.60;;;1.10;;
9821;SDS011;4950;46.042;14.472;2023-04-03T08:54:23;8.93;;;1.48;;
9821;SDS011;4950;46.042;14.472;2023-04-03T08:56:55;3.00;;;1.60;;
9821;SDS011;4950;46.042;14.472;2023-04-03T08:59:26;2.97;;;1.50;;
9821;SDS011;4950;46.042;14.472;2023-04-03T09:01:56;2.35;;;1.58;;
9821;SDS011;4950;46.042;14.472;2023-04-03T09:04:27;4.07;;;1.58;;
9821;SDS011;4950;46.042;14.472;2023-04-03T09:06:57;2.45;;;1.30;;
9821;SDS011;4950;46.042;14.472;2023-04-03T09:09:30;1.33;;;1.10;;
9821;SDS011;4950;46.042;14.472;2023-04-03T09:12:04;2.63;;;1.50;;
9821;SDS011;4950;46.042;14.472;2023-04-03T09:14:46;2.70;;;1.40;;
9821;SDS011;4950;46.042;14.472;2023-04-03T09:17:26;1.85;;;1.40;;
9821;SDS011;4950;46.042;14.472;2023-04-03T09:20:04;3.17;;;1.58;;
9821;SDS011;4950;46.042;14.472;2023-04-03T09:22:41;3.22;;;1.10;;
9821;SDS011;4950;46.042;14.472;2023-04-03T09:25:10;3.65;;;1.35;;
9821;SDS011;4950;46.042;14.472;2023-04-03T09:27:40;2.22;;;1.50;;
9821;SDS011;4950;46.042;14.472;2023-04-03T09:30:11;4.75;;;1.08;;
9821;SDS011;4950;46.042;14.472;2023-04-03T09:32:40;3.72;;;1.35;;
9821;SDS011;4950;46.042;14.472;2023-04-03T09:35:14;2.38;;;1.15;;
9821;SDS011;4950;46.042;14.472;2023-04-03T09:37:45;2.30;;;1.25;;
9821;SDS011;4950;46.042;14.472;2023-04-03T09:40:27;2.22;;;1.17;;
9821;SDS011;4950;46.042;14.472;2023-04-03T09:43:01;2.33;;;1.10;;
9821;SDS011;4950;46.042;14.472;2023-04-03T09:45:45;1.70;;;1.13;;
9821;SDS011;4950;46.042;14.472;2023-04-03T09:48:15;4.32;;;1.35;;
9821;SDS011;4950;46.042;14.472;2023-04-03T09:50:52;3.47;;;1.10;;
9821;SDS011;4950;46.042;14.472;2023-04-03T09:53:26;3.22;;;1.10;;
9821;SDS011;4950;46.042;14.472;2023-04-03T09:56:02;2.63;;;1.40;;
9821;SDS011;4950;46.042;14.472;2023-04-03T09:58:32;4.68;;;1.20;;
9821;SDS011;4950;46.042;14.472;2023-04-03T10:01:02;4.38;;;1.33;;
9821;SDS011;4950;46.042;14.472;2023-04-03T10:03:31;2.28;;;1.20;;
9821;SDS011;4950;46.042;14.472;2023-04-03T10:06:00;3.92;;;1.20;;
9821;SDS011;4950;46.042;14.472;2023-04-03T10:08:28;8.05;;;1.63;;
9821;SDS011;4950;46.042;14.472;2023-04-03T10:11:07;2.05;;;1.17;;
9821;SDS011;4950;46.042;14.472;2023-04-03T10:13:37;3.50;;;1.30;;
9821;SDS011;4950;46.042;14.472;2023-04-03T10:16:17;2.33;;;1.00;;
9821;SDS011;4950;46.042;14.472;2023-04-03T10:18:47;1.77;;;1.30;;
9821;SDS011;4950;46.042;14.472;2023-04-03T10:21:25;2.42;;;1.20;;
9821;SDS011;4950;46.042;14.472;2023-04-03T10:24:02;1.85;;;1.30;;
9821;SDS011;4950;46.042;14.472;2023-04-03T10:26:38;1.52;;;0.93;;
9821;SDS011;4950;46.042;14.472;2023-04-03T10:29:18;3.65;;;1.10;;
9821;SDS011;4950;46.042;14.472;2023-04-03T10:34:24;4.65;;;1.45;;
9821;SDS011;4950;46.042;14.472;2023-04-03T10:36:56;1.50;;;0.82;;
9821;SDS011;4950;46.042;14.472;2023-04-03T10:39:30;3.67;;;1.25;;
9821;SDS011;4950;46.042;14.472;2023-04-03T10:42:05;2.55;;;1.02;;
9821;SDS011;4950;46.042;14.472;2023-04-03T10:44:42;3.75;;;1.30;;
9821;SDS011;4950;46.042;14.472;2023-04-03T10:47:27;3.72;;;1.45;;
9821;SDS011;4950;46.042;14.472;2023-04-03T10:50:02;1.25;;;0.90;;
9821;SDS011;4950;46.042;14.472;2023-04-03T10:52:39;1.40;;;1.10;;
9821;SDS011;4950;46.042;14.472;2023-04-03T10:55:19;2.20;;;1.10;;
9821;SDS011;4950;46.042;14.472;2023-04-03T10:57:54;3.35;;;0.80;;
9821;SDS011;4950;46.042;14.472;2023-04-03T11:00:26;5.28;;;1.08;;
9821;SDS011;4950;46.042;14.472;2023-04-03T11:03:03;2.38;;;1.20;;
9821;SDS011;4950;46.042;14.472;2023-04-03T11:05:34;3.03;;;1.20;;
9821;SDS011;4950;46.042;14.472;2023-04-03T11:08:04;3.78;;;1.20;;
9821;SDS011;4950;46.042;14.472;2023-04-03T11:10:40;2.03;;;1.20;;
9821;SDS011;4950;46.042;14.472;2023-04-03T11:13:10;3.22;;;1.33;;
9821;SDS011;4950;46.042;14.472;2023-04-03T11:15:42;3.05;;;0.85;;
9821;SDS011;4950;46.042;14.472;2023-04-03T11:20:38;2.33;;;1.02;;
9821;SDS011;4950;46.042;14.472;2023-04-03T11:23:12;1.70;;;1.08;;
9821;SDS011;4950;46.042;14.472;2023-04-03T11:25:48;2.40;;;1.02;;
9821;SDS011;4950;46.042;14.472;2023-04-03T11:28:18;3.80;;;0.98;;
9821;SDS011;4950;46.042;14.472;2023-04-03T11:30:48;2.30;;;1.10;;
9821;SDS011;4950;46.042;14.472;2023-04-03T11:33:28;4.90;;;1.17;;
9821;SDS011;4950;46.042;14.472;2023-04-03T11:36:03;4.13;;;1.02;;
9821;SDS011;4950;46.042;14.472;2023-04-03T11:38:34;12.80;;;1.23;;
9821;SDS011;4950;46.042;14.472;2023-04-03T11:41:04;3.58;;;0.93;;
9821;SDS011;4950;46.042;14.472;2023-04-03T11:43:33;3.75;;;1.20;;
9821;SDS011;4950;46.042;14.472;2023-04-03T11:46:07;1.80;;;0.98;;
9821;SDS011;4950;46.042;14.472;2023-04-03T11:48:50;1.40;;;0.90;;
9821;SDS011;4950;46.042;14.472;2023-04-03T11:51:44;2.67;;;0.90;;
9821;SDS011;4950;46.042;14.472;2023-04-03T12:09:33;1.98;;;0.90;;
9821;SDS011;4950;46.042;14.472;2023-04-03T12:12:37;6.67;;;1.27;;
9821;SDS011;4950;46.042;14.472;2023-04-03T12:21:18;0.60;;;0.60;;
9821;SDS011;4950;46.042;14.472;2023-04-03T12:23:57;2.60;;;1.30;;
9821;SDS011;4950;46.042;14.472;2023-04-03T12:26:28;2.45;;;1.08;;
9821;SDS011;4950;46.042;14.472;2023-04-03T12:28:58;5.07;;;1.20;;
9821;SDS011;4950;46.042;14.472;2023-04-03T12:31:32;3.40;;;0.93;;
9821;SDS011;4950;46.042;14.472;2023-04-03T12:34:18;2.30;;;1.17;;
9821;SDS011;4950;46.042;14.472;2023-04-03T12:37:00;1.83;;;0.90;;
9821;SDS011;4950;46.042;14.472;2023-04-03T12:39:44;3.63;;;1.00;;
9821;SDS011;4950;46.042;14.472;2023-04-03T12:42:23;3.17;;;1.27;;
9821;SDS011;4950;46.042;14.472;2023-04-03T12:44:59;8.43;;;1.05;;
9821;SDS011;4950;46.042;14.472;2023-04-03T12:47:36;3.80;;;1.00;;
9821;SDS011;4950;46.042;14.472;2023-04-03T12:50:13;1.23;;;1.00;;
9821;SDS011;4950;46.042;14.472;2023-04-03T12:52:47;1.92;;;1.00;;
9821;SDS011;4950;46.042;14.472;2023-04-03T12:55:20;2.40;;;1.10;;
9821;SDS011;4950;46.042;14.472;2023-04-03T12:57:47;3.30;;;1.10;;
9821;SDS011;4950;46.042;14.472;2023-04-03T13:00:22;4.45;;;1.08;;
9821;SDS011;4950;46.042;14.472;2023-04-03T13:02:57;1.65;;;1.00;;
9821;SDS011;4950;46.042;14.472;2023-04-03T13:05:24;3.50;;;1.35;;
9821;SDS011;4950;46.042;14.472;2023-04-03T13:07:54;3.55;;;1.08;;
9821;SDS011;4950;46.042;14.472;2023-04-03T13:10:25;2.17;;;1.00;;
9821;SDS011;4950;46.042;14.472;2023-04-03T13:12:53;1.35;;;0.82;;
9821;SDS011;4950;46.042;14.472;2023-04-03T13:15:23;1.45;;;0.90;;
9821;SDS011;4950;46.042;14.472;2023-04-03T13:17:52;3.97;;;1.30;;
9821;SDS011;4950;46.042;14.472;2023-04-03T13:20:21;1.40;;;0.75;;
9821;SDS011;4950;46.042;14.472;2023-04-03T13:22:52;3.72;;;0.93;;
9821;SDS011;4950;46.042;14.472;2023-04-03T13:25:25;1.45;;;1.00;;
9821;SDS011;4950;46.042;14.472;2023-04-03T13:27:54;2.00;;;1.20;;
9821;SDS011;4950;46.042;14.472;2023-04-03T13:30:24;3.70;;;1.10;;
9821;SDS011;4950;46.042;14.472;2023-04-03T13:32:54;1.52;;;0.85;;
9821;SDS011;4950;46.042;14.472;2023-04-03T13:35:29;1.85;;;0.85;;
9821;SDS011;4950;46.042;14.472;2023-04-03T13:38:00;3.10;;;1.10;;
9821;SDS011;4950;46.042;14.472;2023-04-03T13:40:30;1.98;;;1.30;;
9821;SDS011;4950;46.042;14.472;2023-04-03T13:43:02;1.73;;;0.80;;
9821;SDS011;4950;46.042;14.472;2023-04-03T13:45:31;3.00;;;1.02;;
9821;SDS011;4950;46.042;14.472;2023-04-03T13:48:16;4.18;;;1.08;;
9821;SDS011;4950;46.042;14.472;2023-04-03T13:50:55;1.65;;;0.93;;
9821;SDS011;4950;46.042;14.472;2023-04-03T13:53:26;2.25;;;1.20;;
9821;SDS011;4950;46.042;14.472;2023-04-03T13:55:56;5.38;;;1.30;;
9821;SDS011;4950;46.042;14.472;2023-04-03T13:58:25;4.13;;;0.98;;
9821;SDS011;4950;46.042;14.472;2023-04-03T14:00:54;1.98;;;1.05;;
9821;SDS011;4950;46.042;14.472;2023-04-03T14:03:28;2.22;;;0.70;;
9821;SDS011;4950;46.042;14.472;2023-04-03T14:05:57;1.90;;;1.20;;
9821;SDS011;4950;46.042;14.472;2023-04-03T14:08:26;1.13;;;0.90;;
9821;SDS011;4950;46.042;14.472;2023-04-03T14:10:53;4.97;;;0.95;;
9821;SDS011;4950;46.042;14.472;2023-04-03T14:13:20;1.85;;;1.00;;
9821;SDS011;4950;46.042;14.472;2023-04-03T14:15:47;1.73;;;0.88;;
9821;SDS011;4950;46.042;14.472;2023-04-03T14:18:17;4.07;;;1.00;;
9821;SDS011;4950;46.042;14.472;2023-04-03T14:20:45;1.60;;;1.00;;
9821;SDS011;4950;46.042;14.472;2023-04-03T14:23:13;2.55;;;1.27;;
9821;SDS011;4950;46.042;14.472;2023-04-03T14:25:42;3.17;;;1.38;;
9821;SDS011;4950;46.042;14.472;2023-04-03T14:28:15;1.55;;;1.10;;
9821;SDS011;4950;46.042;14.472;2023-04-03T14:30:43;6.22;;;1.40;;
9821;SDS011;4950;46.042;14.472;2023-04-03T14:33:13;4.20;;;1.02;;
9821;SDS011;4950;46.042;14.472;2023-04-03T14:35:40;2.53;;;1.00;;
9821;SDS011;4950;46.042;14.472;2023-04-03T14:38:12;2.95;;;1.48;;
9821;SDS011;4950;46.042;14.472;2023-04-03T14:40:49;4.28;;;1.10;;
9821;SDS011;4950;46.042;14.472;2023-04-03T14:43:16;9.93;;;1.55;;
9821;SDS011;4950;46.042;14.472;2023-04-03T14:45:43;1.85;;;1.10;;
9821;SDS011;4950;46.042;14.472;2023-04-03T14:48:10;2.60;;;1.20;;
9821;SDS011;4950;46.042;14.472;2023-04-03T14:50:44;3.00;;;1.08;;
9821;SDS011;4950;46.042;14.472;2023-04-03T14:53:11;5.63;;;1.10;;
9821;SDS011;4950;46.042;14.472;2023-04-03T14:55:40;1.67;;;1.10;;
9821;SDS011;4950;46.042;14.472;2023-04-03T14:58:09;4.53;;;1.20;;
9821;SDS011;4950;46.042;14.472;2023-04-03T15:00:39;5.15;;;1.10;;
9821;SDS011;4950;46.042;14.472;2023-04-03T15:03:08;2.20;;;1.10;;
9821;SDS011;4950;46.042;14.472;2023-04-03T15:05:39;5.57;;;1.25;;
9821;SDS011;4950;46.042;14.472;2023-04-03T15:08:08;3.78;;;1.20;;
9821;SDS011;4950;46.042;14.472;2023-04-03T15:10:45;6.65;;;1.10;;
9821;SDS011;4950;46.042;14.472;2023-04-03T15:13:13;3.05;;;1.52;;
9821;SDS011;4950;46.042;14.472;2023-04-03T15:15:40;3.47;;;2.10;;
9821;SDS011;4950;46.042;14.472;2023-04-03T15:18:09;1.98;;;1.20;;
9821;SDS011;4950;46.042;14.472;2023-04-03T15:20:40;4.28;;;1.27;;
9821;SDS011;4950;46.042;14.472;2023-04-03T15:23:08;2.65;;;1.30;;
9821;SDS011;4950;46.042;14.472;2023-04-03T15:25:36;9.93;;;1.60;;
9821;SDS011;4950;46.042;14.472;2023-04-03T15:28:03;3.55;;;1.30;;
9821;SDS011;4950;46.042;14.472;2023-04-03T15:30:31;3.47;;;1.20;;
9821;SDS011;4950;46.042;14.472;2023-04-03T15:32:58;2.10;;;1.17;;
9821;SDS011;4950;46.042;14.472;2023-04-03T15:35:25;4.10;;;1.50;;
9821;SDS011;4950;46.042;14.472;2023-04-03T15:37:51;4.50;;;1.15;;
9821;SDS011;4950;46.042;14.472;2023-04-03T15:40:18;12.35;;;2.88;;
9821;SDS011;4950;46.042;14.472;2023-04-03T15:42:45;4.00;;;1.13;;
9821;SDS011;4950;46.042;14.472;2023-04-03T15:45:12;2.70;;;1.25;;
9821;SDS011;4950;46.042;14.472;2023-04-03T15:47:40;1.70;;;1.20;;